Time;durP1;ratioP1;P1;durP2;ratioP2;P2;SDS_P1;SDS_P2;PMS_P1;PMS_P2;Temp;Humidity;BMP_temperature;BMP_pressure;BME280_temperature;BME280_humidity;BME280_pressure;Samples;Min_cycle;Max_cycle;Signal;HPM_P1;HPM_P2
2023/03/30 00:00:00;;;;;;;11.43;10.73;;;;;;;;;;4995234;28;20349;-55
2023/03/30 00:02:29;;;;;;;11.50;10.63;;;;;;;;;;4995610;28;20033;-56
2023/03/30 00:05:01;;;;;;;11.27;10.57;;;;;;;;;;4996870;28;20136;-56
2023/03/30 00:07:28;;;;;;;11.15;10.45;;;;;;;;;;4995176;28;20101;-54
2023/03/30 00:09:53;;;;;;;11.98;11.27;;;;;;;;;;4998840;28;20353;-56
2023/03/30 00:12:19;;;;;;;10.88;10.18;;;;;;;;;;4995809;28;20041;-55
2023/03/30 00:14:45;;;;;;;10.77;10.07;;;;;;;;;;4997428;28;20032;-54
2023/03/30 00:17:11;;;;;;;11.93;11.15;;;;;;;;;;4995956;28;20057;-54
2023/03/30 00:19:37;;;;;;;11.00;10.30;;;;;;;;;;4997031;28;20042;-55
2023/03/30 00:22:07;;;;;;;11.02;10.32;;;;;;;;;;4995895;28;20287;-55
2023/03/30 00:24:36;;;;;;;11.30;10.60;;;;;;;;;;4998263;28;20030;-54
2023/03/30 00:27:02;;;;;;;11.27;10.57;;;;;;;;;;4996376;28;20034;-55
2023/03/30 00:29:28;;;;;;;11.02;10.32;;;;;;;;;;4996482;28;20116;-55
2023/03/30 00:31:53;;;;;;;10.55;9.93;;;;;;;;;;4996835;28;20125;-55
2023/03/30 00:34:19;;;;;;;11.52;10.82;;;;;;;;;;4997993;28;20344;-55
2023/03/30 00:36:45;;;;;;;10.90;10.20;;;;;;;;;;4998743;28;20474;-54
2023/03/30 00:39:11;;;;;;;11.60;10.82;;;;;;;;;;4994535;28;20508;-56
2023/03/30 00:41:38;;;;;;;10.57;9.82;;;;;;;;;;4994783;28;20455;-54
2023/03/30 00:44:27;;;;;;;10.60;9.88;;;;;;;;;;4995260;28;20081;-55
2023/03/30 00:46:54;;;;;;;12.30;11.55;;;;;;;;;;4993593;28;20041;-54
2023/03/30 00:49:20;;;;;;;11.77;11.07;;;;;;;;;;4997572;28;20471;-54
2023/03/30 00:51:49;;;;;;;11.45;10.75;;;;;;;;;;4997826;28;20030;-55
2023/03/30 00:54:19;;;;;;;11.93;11.23;;;;;;;;;;4995586;28;20034;-54
2023/03/30 00:56:45;;;;;;;11.70;11.00;;;;;;;;;;4993615;28;20061;-54
2023/03/30 00:59:11;;;;;;;12.60;11.68;;;;;;;;;;4993185;28;20034;-55
2023/03/30 01:01:39;;;;;;;10.77;10.07;;;;;;;;;;4995100;28;20559;-56
2023/03/30 01:04:06;;;;;;;11.15;10.45;;;;;;;;;;4995540;28;20038;-56
2023/03/30 01:06:34;;;;;;;11.63;10.93;;;;;;;;;;4996045;28;20147;-55
2023/03/30 01:09:00;;;;;;;11.25;10.52;;;;;;;;;;4996110;28;20527;-54
2023/03/30 01:11:26;;;;;;;11.95;11.25;;;;;;;;;;4996036;28;20049;-55
2023/03/30 01:14:04;;;;;;;12.73;11.93;;;;;;;;;;4994275;28;20049;-55
2023/03/30 01:16:45;;;;;;;12.15;11.05;;;;;;;;;;4996885;28;20038;-56
2023/03/30 01:19:28;;;;;;;10.73;10.02;;;;;;;;;;4992694;28;20125;-55
2023/03/30 01:22:06;;;;;;;10.45;9.82;;;;;;;;;;4995842;28;20376;-55
2023/03/30 01:25:09;;;;;;;11.57;10.85;;;;;;;;;;4995998;28;20334;-58
2023/03/30 01:28:21;;;;;;;10.73;10.02;;;;;;;;;;4996797;28;20034;-55
2023/03/30 01:31:10;;;;;;;10.55;9.90;;;;;;;;;;4998846;28;20148;-56
2023/03/30 01:33:44;;;;;;;12.27;11.52;;;;;;;;;;4993083;28;20053;-56
2023/03/30 01:36:36;;;;;;;11.07;10.38;;;;;;;;;;4993370;28;20722;-56
2023/03/30 01:39:27;;;;;;;12.35;11.45;;;;;;;;;;4995477;28;20601;-56
2023/03/30 01:41:59;;;;;;;10.15;9.55;;;;;;;;;;4993587;28;20099;-56
2023/03/30 01:44:30;;;;;;;12.13;11.20;;;;;;;;;;4995749;28;20053;-56
2023/03/30 01:47:05;;;;;;;11.80;11.05;;;;;;;;;;4994149;28;20101;-55
2023/03/30 01:50:15;;;;;;;11.45;10.75;;;;;;;;;;4995667;28;20077;-57
2023/03/30 01:53:03;;;;;;;11.38;10.60;;;;;;;;;;4955767;28;20038;-55
2023/03/30 01:55:35;;;;;;;11.15;10.45;;;;;;;;;;4992631;28;20026;-55
2023/03/30 01:58:00;;;;;;;10.73;10.02;;;;;;;;;;4992712;28;20566;-55
2023/03/30 02:00:27;;;;;;;13.23;12.43;;;;;;;;;;4988132;28;20030;-54
2023/03/30 02:03:10;;;;;;;11.40;10.70;;;;;;;;;;4995001;28;20140;-55
2023/03/30 02:05:37;;;;;;;10.82;10.13;;;;;;;;;;4994387;28;20045;-56
2023/03/30 02:08:07;;;;;;;11.05;10.35;;;;;;;;;;5008688;28;20069;-56
2023/03/30 02:10:35;;;;;;;12.02;11.32;;;;;;;;;;4994316;28;20237;-53
2023/03/30 02:13:03;;;;;;;10.65;10.00;;;;;;;;;;4993595;28;20111;-56
2023/03/30 02:15:36;;;;;;;13.05;12.25;;;;;;;;;;4992429;28;20428;-56
2023/03/30 02:18:02;;;;;;;10.95;10.25;;;;;;;;;;4992092;28;20223;-54
2023/03/30 02:20:29;;;;;;;12.25;11.30;;;;;;;;;;4992434;28;20121;-54
2023/03/30 02:22:56;;;;;;;12.77;11.80;;;;;;;;;;4996298;28;20499;-56
2023/03/30 02:25:22;;;;;;;11.02;10.32;;;;;;;;;;4994221;28;20457;-55
2023/03/30 02:27:48;;;;;;;11.43;10.73;;;;;;;;;;4993245;28;20141;-55
2023/03/30 02:30:14;;;;;;;13.65;11.93;;;;;;;;;;4997380;28;20034;-55
2023/03/30 02:32:48;;;;;;;10.98;10.25;;;;;;;;;;4996685;28;20065;-54
2023/03/30 02:35:37;;;;;;;11.35;10.60;;;;;;;;;;4991638;28;20582;-55
2023/03/30 02:38:05;;;;;;;11.23;10.52;;;;;;;;;;4992683;28;20046;-56
2023/03/30 02:40:51;;;;;;;11.63;10.80;;;;;;;;;;4993641;28;20042;-56
2023/03/30 02:43:36;;;;;;;11.98;11.27;;;;;;;;;;4993859;28;20054;-56
2023/03/30 02:46:18;;;;;;;11.10;10.40;;;;;;;;;;4993456;28;20069;-55
2023/03/30 02:49:07;;;;;;;11.93;11.23;;;;;;;;;;4993551;28;20065;-56
2023/03/30 02:51:37;;;;;;;12.32;11.52;;;;;;;;;;4992766;28;20108;-55
2023/03/30 02:54:31;;;;;;;10.90;10.20;;;;;;;;;;4992704;28;20368;-56
2023/03/30 02:57:08;;;;;;;10.77;10.07;;;;;;;;;;4993992;28;20367;-56
2023/03/30 02:59:48;;;;;;;11.85;11.05;;;;;;;;;;4994636;28;20959;-55
2023/03/30 03:02:43;;;;;;;12.23;11.43;;;;;;;;;;4994156;28;20472;-54
2023/03/30 03:05:11;;;;;;;11.77;11.05;;;;;;;;;;4990024;28;20074;-55
2023/03/30 03:07:38;;;;;;;11.55;10.85;;;;;;;;;;4996121;28;20042;-56
2023/03/30 03:10:05;;;;;;;12.65;11.85;;;;;;;;;;4993883;28;20033;-55
2023/03/30 03:12:31;;;;;;;12.35;11.57;;;;;;;;;;4991866;28;20041;-55
2023/03/30 03:14:57;;;;;;;12.75;12.00;;;;;;;;;;4992236;28;20645;-55
2023/03/30 03:17:22;;;;;;;11.95;10.98;;;;;;;;;;4991453;28;20061;-55
2023/03/30 03:19:48;;;;;;;13.77;12.90;;;;;;;;;;4994082;28;20041;-55
2023/03/30 03:22:14;;;;;;;12.90;12.10;;;;;;;;;;4992325;28;20372;-53
2023/03/30 03:24:39;;;;;;;12.23;11.45;;;;;;;;;;4994542;28;20129;-54
2023/03/30 03:27:05;;;;;;;12.68;11.98;;;;;;;;;;4988665;28;20840;-54
2023/03/30 03:29:31;;;;;;;11.68;10.98;;;;;;;;;;4991593;28;20034;-55
2023/03/30 03:31:56;;;;;;;13.00;12.10;;;;;;;;;;4998059;28;20762;-54
2023/03/30 03:34:24;;;;;;;12.27;11.57;;;;;;;;;;4997836;28;20066;-53
2023/03/30 03:36:52;;;;;;;12.38;11.65;;;;;;;;;;4995076;28;20636;-54
2023/03/30 03:39:17;;;;;;;12.20;11.50;;;;;;;;;;4993568;28;20486;-54
2023/03/30 03:41:43;;;;;;;12.25;11.45;;;;;;;;;;4996477;28;20034;-54
2023/03/30 03:44:08;;;;;;;11.35;10.65;;;;;;;;;;4994567;28;20034;-54
2023/03/30 03:46:34;;;;;;;11.50;10.80;;;;;;;;;;4993887;28;20045;-54
2023/03/30 03:48:59;;;;;;;11.50;10.80;;;;;;;;;;4995729;28;20045;-55
2023/03/30 03:51:25;;;;;;;12.05;11.13;;;;;;;;;;4993929;28;20129;-55
2023/03/30 03:53:51;;;;;;;10.85;10.15;;;;;;;;;;4997421;28;20133;-54
2023/03/30 03:56:16;;;;;;;13.32;12.25;;;;;;;;;;4994226;28;20504;-56
2023/03/30 03:58:41;;;;;;;12.85;12.07;;;;;;;;;;4995785;28;20038;-57
2023/03/30 04:01:07;;;;;;;12.18;11.38;;;;;;;;;;4993089;28;20726;-54
2023/03/30 04:03:32;;;;;;;12.82;11.77;;;;;;;;;;4993508;28;20081;-55
2023/03/30 04:05:59;;;;;;;12.77;12.00;;;;;;;;;;4996306;28;20030;-56
2023/03/30 04:08:25;;;;;;;12.93;12.13;;;;;;;;;;4996167;28;20038;-57
2023/03/30 04:10:50;;;;;;;13.50;12.70;;;;;;;;;;4994684;28;20045;-53
2023/03/30 04:13:15;;;;;;;14.10;13.20;;;;;;;;;;4994338;28;20116;-53
2023/03/30 04:15:41;;;;;;;14.88;13.98;;;;;;;;;;4996730;28;20120;-54
2023/03/30 04:18:07;;;;;;;13.10;12.30;;;;;;;;;;4998044;28;20056;-54
2023/03/30 04:20:32;;;;;;;13.18;12.38;;;;;;;;;;4993483;28;20053;-53
2023/03/30 04:23:00;;;;;;;12.25;11.55;;;;;;;;;;4997155;28;20068;-53
2023/03/30 04:25:26;;;;;;;12.95;12.18;;;;;;;;;;4993898;28;20474;-54
2023/03/30 04:27:52;;;;;;;12.52;11.77;;;;;;;;;;4995186;28;20046;-54
2023/03/30 04:30:19;;;;;;;14.70;13.80;;;;;;;;;;4995559;28;20041;-57
2023/03/30 04:32:45;;;;;;;15.85;14.95;;;;;;;;;;4995013;28;20041;-55
2023/03/30 04:35:13;;;;;;;14.35;13.55;;;;;;;;;;4993348;28;20042;-57
2023/03/30 04:37:40;;;;;;;13.27;12.48;;;;;;;;;;4994793;28;20033;-55
2023/03/30 04:40:14;;;;;;;13.82;12.93;;;;;;;;;;4994310;28;20034;-56
2023/03/30 04:42:40;;;;;;;13.25;12.35;;;;;;;;;;4997078;28;20036;-54
2023/03/30 04:45:07;;;;;;;13.60;12.77;;;;;;;;;;4995225;28;20140;-55
2023/03/30 04:47:33;;;;;;;14.30;13.40;;;;;;;;;;4996937;28;20038;-55
2023/03/30 04:50:00;;;;;;;13.80;13.00;;;;;;;;;;4995028;28;20037;-56
2023/03/30 04:52:25;;;;;;;15.05;14.05;;;;;;;;;;4996467;28;20056;-55
2023/03/30 04:54:51;;;;;;;15.07;14.18;;;;;;;;;;4995053;28;20502;-56
2023/03/30 04:57:16;;;;;;;17.25;16.15;;;;;;;;;;4993010;28;20033;-55
2023/03/30 04:59:43;;;;;;;17.33;16.33;;;;;;;;;;4996653;28;20033;-54
2023/03/30 05:02:10;;;;;;;20.60;19.48;;;;;;;;;;4992636;28;20088;-55
2023/03/30 05:04:36;;;;;;;21.05;19.83;;;;;;;;;;4995246;28;20153;-55
2023/03/30 05:07:02;;;;;;;21.10;19.92;;;;;;;;;;4991802;28;20033;-55
2023/03/30 05:09:27;;;;;;;21.17;20.02;;;;;;;;;;4990807;28;20050;-56
2023/03/30 05:11:53;;;;;;;20.67;19.55;;;;;;;;;;4992477;28;20035;-55
2023/03/30 05:14:18;;;;;;;22.10;20.80;;;;;;;;;;4992003;28;20030;-55
2023/03/30 05:16:43;;;;;;;22.13;20.83;;;;;;;;;;5003037;28;20040;-55
2023/03/30 05:19:09;;;;;;;20.55;19.38;;;;;;;;;;4994194;28;20042;-55
2023/03/30 05:21:34;;;;;;;20.58;19.48;;;;;;;;;;4995320;28;20375;-56
2023/03/30 05:24:00;;;;;;;18.23;17.02;;;;;;;;;;4996278;28;20060;-55
2023/03/30 05:26:26;;;;;;;15.40;14.50;;;;;;;;;;4994357;28;20476;-56
2023/03/30 05:28:52;;;;;;;14.07;13.18;;;;;;;;;;4994113;28;20288;-55
2023/03/30 05:31:18;;;;;;;12.70;11.60;;;;;;;;;;4994224;28;20784;-55
2023/03/30 05:33:44;;;;;;;13.05;12.25;;;;;;;;;;4996226;28;20045;-54
2023/03/30 05:36:10;;;;;;;12.35;11.65;;;;;;;;;;4994682;28;20452;-55
2023/03/30 05:38:35;;;;;;;10.95;10.25;;;;;;;;;;4995609;28;20192;-54
2023/03/30 05:41:01;;;;;;;11.75;11.00;;;;;;;;;;4996183;28;20588;-53
2023/03/30 05:43:27;;;;;;;11.55;10.85;;;;;;;;;;4992878;28;20046;-53
2023/03/30 05:45:52;;;;;;;12.05;11.27;;;;;;;;;;4994481;28;20518;-53
2023/03/30 05:48:18;;;;;;;12.10;11.40;;;;;;;;;;4992848;28;20046;-51
2023/03/30 05:50:46;;;;;;;13.68;12.88;;;;;;;;;;4994597;28;20045;-50
2023/03/30 05:53:12;;;;;;;13.48;12.57;;;;;;;;;;4994783;28;20409;-52
2023/03/30 05:55:37;;;;;;;13.10;12.27;;;;;;;;;;4994726;28;20030;-50
2023/03/30 05:58:02;;;;;;;14.15;13.15;;;;;;;;;;4993267;28;20436;-49
2023/03/30 06:00:32;;;;;;;13.68;12.82;;;;;;;;;;4992563;28;20034;-48
2023/03/30 06:02:58;;;;;;;14.60;13.38;;;;;;;;;;4994093;28;20044;-50
2023/03/30 06:05:23;;;;;;;12.13;11.43;;;;;;;;;;4993934;28;20084;-49
2023/03/30 06:07:48;;;;;;;13.48;12.68;;;;;;;;;;5007136;28;20113;-51
2023/03/30 06:10:14;;;;;;;13.27;12.00;;;;;;;;;;4993111;28;20451;-53
2023/03/30 06:12:40;;;;;;;12.82;12.07;;;;;;;;;;4995366;28;20451;-50
2023/03/30 06:15:07;;;;;;;12.82;12.02;;;;;;;;;;4990817;28;20042;-49
2023/03/30 06:17:33;;;;;;;14.27;13.38;;;;;;;;;;4992439;28;20136;-49
2023/03/30 06:19:59;;;;;;;15.68;14.77;;;;;;;;;;4993116;28;20038;-49
2023/03/30 06:22:24;;;;;;;14.88;14.00;;;;;;;;;;4993797;28;20025;-52
2023/03/30 06:24:50;;;;;;;14.60;13.70;;;;;;;;;;4993788;28;20049;-53
2023/03/30 06:27:15;;;;;;;15.10;14.25;;;;;;;;;;4995035;28;20399;-52
2023/03/30 06:29:41;;;;;;;15.20;14.30;;;;;;;;;;4995758;28;20045;-48
2023/03/30 06:32:06;;;;;;;15.27;14.38;;;;;;;;;;4996442;28;20076;-53
2023/03/30 06:34:32;;;;;;;14.73;13.68;;;;;;;;;;4997434;28;20041;-50
2023/03/30 06:36:57;;;;;;;17.10;15.73;;;;;;;;;;4995213;28;20096;-51
2023/03/30 06:39:23;;;;;;;16.52;15.63;;;;;;;;;;4994045;28;20627;-52
2023/03/30 06:41:48;;;;;;;15.30;14.40;;;;;;;;;;4999582;28;20064;-52
2023/03/30 06:44:14;;;;;;;17.45;16.17;;;;;;;;;;4998491;28;20023;-55
2023/03/30 06:46:40;;;;;;;15.05;14.18;;;;;;;;;;4996504;28;20705;-55
2023/03/30 06:49:06;;;;;;;17.00;15.55;;;;;;;;;;4996254;28;20034;-54
2023/03/30 06:51:34;;;;;;;16.15;15.13;;;;;;;;;;4993785;28;20038;-50
2023/03/30 06:54:00;;;;;;;15.90;14.85;;;;;;;;;;4993041;28;20101;-54
2023/03/30 06:56:26;;;;;;;17.25;15.55;;;;;;;;;;4991701;28;20030;-54
2023/03/30 06:58:51;;;;;;;15.52;14.55;;;;;;;;;;4993697;28;20334;-54
2023/03/30 07:01:17;;;;;;;15.88;14.93;;;;;;;;;;4991502;28;20042;-54
2023/03/30 07:03:43;;;;;;;15.07;14.07;;;;;;;;;;4990301;28;20052;-56
2023/03/30 07:06:09;;;;;;;14.60;13.77;;;;;;;;;;4995579;28;20869;-53
2023/03/30 07:08:35;;;;;;;15.63;14.45;;;;;;;;;;4998053;28;20057;-57
2023/03/30 07:11:02;;;;;;;15.88;14.98;;;;;;;;;;4999081;28;20095;-55
2023/03/30 07:13:28;;;;;;;14.93;14.02;;;;;;;;;;4992948;28;20660;-59
2023/03/30 07:15:53;;;;;;;14.98;14.18;;;;;;;;;;4995861;28;20056;-56
2023/03/30 07:18:19;;;;;;;15.48;14.48;;;;;;;;;;4993141;28;20038;-57
2023/03/30 07:20:45;;;;;;;16.95;15.85;;;;;;;;;;4992863;28;20042;-56
2023/03/30 07:23:11;;;;;;;14.52;13.73;;;;;;;;;;4996602;28;20109;-57
2023/03/30 07:25:37;;;;;;;14.35;13.55;;;;;;;;;;4995779;28;20121;-56
2023/03/30 07:28:05;;;;;;;15.80;13.82;;;;;;;;;;4994278;28;20042;-56
2023/03/30 07:30:31;;;;;;;15.00;14.00;;;;;;;;;;4994074;28;20122;-56
2023/03/30 07:32:57;;;;;;;13.82;12.93;;;;;;;;;;4995783;28;20710;-55
2023/03/30 07:35:22;;;;;;;12.65;11.90;;;;;;;;;;4992735;28;20045;-56
2023/03/30 07:37:48;;;;;;;13.20;12.40;;;;;;;;;;4996414;28;20515;-56
2023/03/30 07:40:13;;;;;;;13.75;12.85;;;;;;;;;;4991359;28;20041;-57
2023/03/30 07:42:40;;;;;;;14.35;13.55;;;;;;;;;;4996984;28;20038;-57
2023/03/30 07:45:07;;;;;;;12.25;11.55;;;;;;;;;;4995121;28;20046;-57
2023/03/30 07:47:32;;;;;;;15.05;13.98;;;;;;;;;;4993681;28;20042;-57
2023/03/30 07:49:57;;;;;;;13.30;12.50;;;;;;;;;;4996529;28;20042;-57
2023/03/30 07:52:23;;;;;;;12.80;12.10;;;;;;;;;;4994862;28;20120;-57
2023/03/30 07:54:48;;;;;;;12.50;11.73;;;;;;;;;;4992038;28;20033;-57
2023/03/30 07:57:13;;;;;;;13.77;12.80;;;;;;;;;;4997605;28;20075;-57
2023/03/30 07:59:39;;;;;;;12.60;11.88;;;;;;;;;;4994379;28;20054;-57
2023/03/30 08:02:05;;;;;;;13.23;12.20;;;;;;;;;;4996876;28;20026;-58
2023/03/30 08:04:31;;;;;;;12.35;11.63;;;;;;;;;;4995463;28;20073;-57
2023/03/30 08:06:57;;;;;;;13.38;12.57;;;;;;;;;;4993006;28;20289;-57
2023/03/30 08:09:22;;;;;;;12.40;11.60;;;;;;;;;;4996537;28;20034;-57
2023/03/30 08:11:47;;;;;;;13.38;12.57;;;;;;;;;;4994541;28;20030;-57
2023/03/30 08:14:13;;;;;;;12.60;11.80;;;;;;;;;;4993771;28;20052;-57
2023/03/30 08:16:38;;;;;;;12.98;12.18;;;;;;;;;;4996865;28;20361;-56
2023/03/30 08:19:04;;;;;;;14.20;13.27;;;;;;;;;;4993879;28;20030;-56
2023/03/30 08:21:29;;;;;;;13.80;12.90;;;;;;;;;;4997423;28;20137;-57
2023/03/30 08:23:57;;;;;;;20.45;13.32;;;;;;;;;;4996057;28;20049;-57
2023/03/30 08:26:23;;;;;;;13.05;12.25;;;;;;;;;;4995397;28;20070;-57
2023/03/30 08:28:48;;;;;;;13.32;12.52;;;;;;;;;;4994379;28;20065;-57
2023/03/30 08:31:16;;;;;;;13.05;12.27;;;;;;;;;;4995398;28;20053;-57
2023/03/30 08:33:43;;;;;;;13.63;12.73;;;;;;;;;;4999260;28;20062;-57
2023/03/30 08:36:09;;;;;;;13.30;12.50;;;;;;;;;;4996179;28;20116;-57
2023/03/30 08:38:34;;;;;;;12.75;12.00;;;;;;;;;;4994736;28;20168;-57
2023/03/30 08:41:00;;;;;;;13.60;12.77;;;;;;;;;;4994917;28;20097;-57
2023/03/30 08:43:48;;;;;;;14.43;13.38;;;;;;;;;;4997624;28;20034;-57
2023/03/30 08:46:15;;;;;;;13.98;13.07;;;;;;;;;;4995917;28;20483;-57
2023/03/30 08:48:41;;;;;;;14.15;13.20;;;;;;;;;;4995747;28;20038;-57
2023/03/30 08:51:26;;;;;;;14.20;13.40;;;;;;;;;;4993552;28;20087;-56
2023/03/30 08:54:00;;;;;;;14.30;13.50;;;;;;;;;;4993619;28;20029;-57
2023/03/30 08:56:33;;;;;;;14.10;13.27;;;;;;;;;;4994007;28;20475;-57
2023/03/30 08:59:23;;;;;;;14.43;13.52;;;;;;;;;;4997927;28;20503;-56
2023/03/30 09:02:02;;;;;;;15.57;14.57;;;;;;;;;;4994346;28;20193;-57
2023/03/30 09:04:39;;;;;;;14.20;13.38;;;;;;;;;;4994409;28;20042;-57
2023/03/30 09:07:05;;;;;;;14.63;13.75;;;;;;;;;;4993238;28;20121;-58
2023/03/30 09:09:38;;;;;;;16.67;15.10;;;;;;;;;;4992048;28;20589;-55
2023/03/30 09:12:10;;;;;;;14.68;13.82;;;;;;;;;;5000469;28;20049;-55
2023/03/30 09:14:52;;;;;;;15.43;14.57;;;;;;;;;;4994240;28;20065;-55
2023/03/30 09:17:41;;;;;;;16.63;15.52;;;;;;;;;;4993378;28;20521;-56
2023/03/30 09:20:30;;;;;;;14.73;13.25;;;;;;;;;;4994369;28;20046;-57
2023/03/30 09:22:59;;;;;;;14.13;13.25;;;;;;;;;;5004903;28;20512;-56
2023/03/30 09:25:46;;;;;;;14.77;13.90;;;;;;;;;;4995562;28;20588;-56
2023/03/30 09:28:26;;;;;;;14.88;13.98;;;;;;;;;;4994072;28;20038;-56
2023/03/30 09:30:58;;;;;;;13.52;12.73;;;;;;;;;;4986773;28;20048;-56
2023/03/30 09:33:42;;;;;;;15.40;14.50;;;;;;;;;;4994217;28;20034;-56
2023/03/30 09:36:08;;;;;;;15.82;14.73;;;;;;;;;;4992938;28;20107;-55
2023/03/30 09:38:36;;;;;;;15.18;14.27;;;;;;;;;;4992431;28;20046;-56
2023/03/30 09:41:12;;;;;;;14.75;13.95;;;;;;;;;;4992032;28;20038;-56
2023/03/30 09:43:44;;;;;;;15.30;14.05;;;;;;;;;;4993850;28;20041;-58
2023/03/30 09:46:12;;;;;;;14.80;13.90;;;;;;;;;;4995264;28;20050;-55
2023/03/30 09:48:48;;;;;;;15.43;14.52;;;;;;;;;;4995231;28;20125;-55
2023/03/30 09:51:18;;;;;;;16.25;15.35;;;;;;;;;;4991492;28;20466;-56
2023/03/30 09:53:45;;;;;;;17.13;15.18;;;;;;;;;;4990329;28;20797;-55
2023/03/30 09:56:45;;;;;;;15.18;14.27;;;;;;;;;;4993811;28;20026;-56
2023/03/30 09:59:27;;;;;;;14.77;13.93;;;;;;;;;;4991821;28;20068;-56
2023/03/30 10:02:07;;;;;;;16.42;15.43;;;;;;;;;;4992569;28;20464;-56
2023/03/30 10:04:32;;;;;;;14.13;13.33;;;;;;;;;;4992363;28;20109;-55
2023/03/30 10:06:57;;;;;;;15.18;14.27;;;;;;;;;;4994127;28;20388;-55
2023/03/30 10:09:23;;;;;;;14.38;13.57;;;;;;;;;;4992909;28;20075;-56
2023/03/30 10:11:51;;;;;;;15.02;14.13;;;;;;;;;;4989388;28;20037;-55
2023/03/30 10:14:25;;;;;;;16.05;15.05;;;;;;;;;;4989405;28;20038;-58
2023/03/30 10:16:50;;;;;;;15.02;14.13;;;;;;;;;;4989998;28;20042;-55
2023/03/30 10:19:20;;;;;;;17.20;16.20;;;;;;;;;;4994942;28;20064;-55
2023/03/30 10:21:46;;;;;;;15.35;14.45;;;;;;;;;;4992433;28;20777;-55
2023/03/30 10:24:12;;;;;;;13.57;12.77;;;;;;;;;;4992362;28;20041;-55
2023/03/30 10:26:37;;;;;;;13.40;12.60;;;;;;;;;;4998260;28;20038;-56
2023/03/30 10:29:06;;;;;;;11.90;11.20;;;;;;;;;;4995176;28;20145;-61
2023/03/30 10:31:36;;;;;;;11.52;10.82;;;;;;;;;;4994329;28;20029;-55
2023/03/30 10:34:03;;;;;;;12.13;11.33;;;;;;;;;;4991937;28;20057;-56
2023/03/30 10:36:37;;;;;;;11.65;10.95;;;;;;;;;;4989233;28;20277;-57
2023/03/30 10:39:21;;;;;;;13.23;12.43;;;;;;;;;;4995783;28;20092;-58
2023/03/30 10:41:49;;;;;;;13.55;12.75;;;;;;;;;;4990444;28;20412;-58
2023/03/30 10:44:22;;;;;;;13.40;12.60;;;;;;;;;;4996270;28;20034;-56
2023/03/30 10:46:50;;;;;;;13.13;12.32;;;;;;;;;;4992042;28;20042;-56
2023/03/30 10:49:26;;;;;;;13.32;12.52;;;;;;;;;;4994254;28;20474;-55
2023/03/30 10:52:10;;;;;;;14.25;13.45;;;;;;;;;;4993116;28;20095;-57
2023/03/30 10:54:41;;;;;;;14.85;13.95;;;;;;;;;;4993120;28;20105;-56
2023/03/30 10:57:13;;;;;;;12.60;11.90;;;;;;;;;;4995090;28;20037;-54
2023/03/30 11:00:08;;;;;;;14.82;14.00;;;;;;;;;;4993146;28;20066;-57
2023/03/30 11:02:47;;;;;;;19.13;17.83;;;;;;;;;;4993200;28;20029;-59
2023/03/30 11:05:21;;;;;;;17.30;16.30;;;;;;;;;;4992150;28;20066;-59
2023/03/30 11:08:02;;;;;;;19.17;18.05;;;;;;;;;;5007116;28;20034;-59
2023/03/30 11:10:31;;;;;;;26.85;25.42;;;;;;;;;;4991637;28;20062;-55
2023/03/30 11:13:12;;;;;;;30.27;28.70;;;;;;;;;;5004827;28;20832;-58
2023/03/30 11:15:47;;;;;;;32.30;30.10;;;;;;;;;;4990595;28;20030;-55
2023/03/30 11:18:41;;;;;;;41.53;39.40;;;;;;;;;;4990949;28;20034;-51
2023/03/30 11:21:13;;;;;;;39.33;37.25;;;;;;;;;;4991624;28;20108;-58
2023/03/30 11:23:51;;;;;;;42.05;38.72;;;;;;;;;;4992444;28;20168;-58
2023/03/30 11:26:23;;;;;;;40.30;38.22;;;;;;;;;;4992032;28;20057;-57
2023/03/30 11:29:14;;;;;;;35.05;33.17;;;;;;;;;;4989500;28;20455;-56
2023/03/30 11:32:20;;;;;;;35.33;33.50;;;;;;;;;;4992854;28;20464;-57
2023/03/30 11:35:18;;;;;;;29.55;28.00;;;;;;;;;;4978154;28;20065;-57
2023/03/30 11:38:01;;;;;;;37.60;35.65;;;;;;;;;;4993350;28;20026;-58
2023/03/30 11:40:45;;;;;;;34.70;32.90;;;;;;;;;;4992384;28;20491;-55
2023/03/30 11:43:16;;;;;;;35.47;33.60;;;;;;;;;;5009046;28;20056;-55
2023/03/30 11:45:49;;;;;;;39.88;37.83;;;;;;;;;;4994412;28;20468;-55
2023/03/30 11:48:37;;;;;;;44.22;41.97;;;;;;;;;;4993026;28;20101;-58
2023/03/30 11:51:08;;;;;;;30.83;29.17;;;;;;;;;;4993139;28;20074;-57
2023/03/30 11:53:53;;;;;;;23.42;22.13;;;;;;;;;;4995593;28;20026;-53
2023/03/30 11:56:45;;;;;;;40.85;38.72;;;;;;;;;;4993360;28;20034;-56
2023/03/30 11:59:19;;;;;;;35.53;33.63;;;;;;;;;;4994889;28;20546;-55
2023/03/30 12:02:05;;;;;;;39.35;37.22;;;;;;;;;;4997230;28;20090;-56
2023/03/30 12:04:43;;;;;;;24.88;23.58;;;;;;;;;;4998990;28;20479;-57
2023/03/30 12:07:22;;;;;;;15.85;14.95;;;;;;;;;;4997226;28;20069;-58
2023/03/30 12:09:57;;;;;;;15.25;14.35;;;;;;;;;;4995598;28;20043;-57
2023/03/30 12:12:31;;;;;;;16.60;15.70;;;;;;;;;;4995242;28;20091;-56
2023/03/30 12:15:03;;;;;;;17.08;16.15;;;;;;;;;;4995402;28;20065;-57
2023/03/30 12:17:42;;;;;;;19.33;18.30;;;;;;;;;;4994999;28;20057;-56
2023/03/30 12:20:23;;;;;;;18.95;17.90;;;;;;;;;;4994747;28;20192;-58
2023/03/30 12:23:13;;;;;;;19.48;18.40;;;;;;;;;;4995370;28;20040;-58
2023/03/30 12:26:07;;;;;;;18.65;17.65;;;;;;;;;;4996452;28;20045;-58
2023/03/30 12:28:58;;;;;;;13.38;12.57;;;;;;;;;;4996101;28;20129;-57
2023/03/30 12:31:48;;;;;;;23.67;17.20;;;;;;;;;;4988320;28;20108;-58
2023/03/30 12:34:15;;;;;;;18.10;17.10;;;;;;;;;;4991658;28;20031;-58
2023/03/30 12:36:41;;;;;;;17.25;16.15;;;;;;;;;;4991828;28;20341;-58
2023/03/30 12:39:30;;;;;;;19.42;18.33;;;;;;;;;;5011572;28;20034;-58
2023/03/30 12:42:25;;;;;;;16.95;16.05;;;;;;;;;;4995647;28;20042;-59
2023/03/30 12:45:19;;;;;;;13.02;12.27;;;;;;;;;;4995870;28;20042;-59
2023/03/30 12:48:22;;;;;;;14.80;14.00;;;;;;;;;;4997507;28;20049;-58
2023/03/30 12:51:12;;;;;;;15.55;14.65;;;;;;;;;;4992821;28;20041;-59
2023/03/30 12:54:10;;;;;;;17.92;16.92;;;;;;;;;;4996894;28;20399;-59
2023/03/30 12:57:01;;;;;;;13.38;12.57;;;;;;;;;;4992159;28;20104;-59
2023/03/30 12:59:51;;;;;;;14.73;13.93;;;;;;;;;;4993504;28;20030;-58
2023/03/30 13:02:50;;;;;;;16.05;15.15;;;;;;;;;;4994451;28;20062;-58
2023/03/30 13:05:30;;;;;;;18.15;16.55;;;;;;;;;;4997855;28;20095;-58
2023/03/30 13:08:02;;;;;;;15.35;14.45;;;;;;;;;;4996723;28;20093;-57
2023/03/30 13:10:28;;;;;;;20.52;19.35;;;;;;;;;;4995258;28;20428;-57
2023/03/30 13:13:00;;;;;;;46.83;44.45;;;;;;;;;;4993661;28;20099;-57
2023/03/30 13:15:28;;;;;;;53.47;50.78;;;;;;;;;;4994703;28;20561;-53
2023/03/30 13:17:53;;;;;;;18.27;17.27;;;;;;;;;;4991556;28;20041;-49
2023/03/30 13:20:20;;;;;;;15.82;14.93;;;;;;;;;;4996680;28;20034;-51
2023/03/30 13:23:08;;;;;;;14.20;13.25;;;;;;;;;;4992507;28;20044;-51
2023/03/30 13:26:03;;;;;;;11.60;10.90;;;;;;;;;;4986594;28;20049;-50
2023/03/30 13:28:32;;;;;;;12.60;11.80;;;;;;;;;;4993764;28;20041;-51
2023/03/30 13:31:10;;;;;;;15.70;14.80;;;;;;;;;;5007428;28;20318;-51
2023/03/30 13:33:43;;;;;;;29.27;27.75;;;;;;;;;;4991389;28;20095;-50
2023/03/30 13:36:15;;;;;;;57.92;54.95;;;;;;;;;;4993185;28;20068;-50
2023/03/30 13:39:02;;;;;;;53.60;50.83;;;;;;;;;;4995657;28;20068;-49
2023/03/30 13:41:36;;;;;;;32.92;31.23;;;;;;;;;;4995923;28;20030;-52
2023/03/30 13:44:50;;;;;;;20.33;19.23;;;;;;;;;;4992930;28;20117;-52
2023/03/30 13:47:26;;;;;;;13.20;12.43;;;;;;;;;;4983578;28;20050;-50
2023/03/30 13:49:58;;;;;;;22.85;21.63;;;;;;;;;;4995069;28;20123;-50
2023/03/30 13:52:32;;;;;;;18.75;17.75;;;;;;;;;;4993839;28;20535;-49
2023/03/30 13:55:00;;;;;;;19.05;18.02;;;;;;;;;;4993545;28;20114;-51
2023/03/30 13:57:34;;;;;;;16.88;15.98;;;;;;;;;;4995154;28;20026;-49
2023/03/30 14:00:22;;;;;;;12.82;12.10;;;;;;;;;;4994421;28;20170;-49
2023/03/30 14:02:48;;;;;;;11.13;10.43;;;;;;;;;;4994818;28;20053;-52
2023/03/30 14:05:23;;;;;;;12.02;11.32;;;;;;;;;;4995154;28;20427;-52
2023/03/30 14:07:48;;;;;;;15.32;14.43;;;;;;;;;;4995556;28;20541;-49
2023/03/30 14:10:19;;;;;;;13.77;12.98;;;;;;;;;;5006975;28;20023;-52
2023/03/30 14:12:50;;;;;;;13.10;12.30;;;;;;;;;;4996530;28;20030;-48
2023/03/30 14:15:18;;;;;;;13.13;12.35;;;;;;;;;;4992925;28;20065;-51
2023/03/30 14:17:53;;;;;;;15.85;14.88;;;;;;;;;;4993926;28;20040;-50
2023/03/30 14:20:36;;;;;;;14.50;13.70;;;;;;;;;;4994412;28;20069;-51
2023/03/30 14:23:03;;;;;;;18.17;17.17;;;;;;;;;;4995800;28;20034;-51
2023/03/30 14:25:33;;;;;;;20.15;18.58;;;;;;;;;;4995346;28;20368;-52
2023/03/30 14:28:11;;;;;;;17.88;16.88;;;;;;;;;;4991877;28;20076;-50
2023/03/30 14:30:36;;;;;;;19.92;18.83;;;;;;;;;;4991579;28;20366;-50
2023/03/30 14:33:07;;;;;;;21.30;20.17;;;;;;;;;;4992415;28;20085;-54
2023/03/30 14:35:37;;;;;;;20.23;19.13;;;;;;;;;;4994205;28;20363;-49
2023/03/30 14:38:02;;;;;;;21.92;20.67;;;;;;;;;;4994662;28;20121;-52
2023/03/30 14:40:28;;;;;;;20.10;18.52;;;;;;;;;;4991160;28;20431;-50
2023/03/30 14:42:53;;;;;;;19.00;17.98;;;;;;;;;;4994090;28;20061;-49